Weather History for Camden, SC

Change the Weather History Date:

Thursday, November 8, 2012

  Actual Average (KSSC) Record (KSSC)
Temperature  
Mean Temperature 50 °F -  
Max Temperature 64 °F 66 °F 80 °F (2000)
Min Temperature 35 °F 43 °F 32 °F (1998)
Degree Days  
Heating Degree Days 16    
Moisture  
Dew Point 34 °F    
Average Humidity 65    
Maximum Humidity 100    
Minimum Humidity 21    
Precipitation  
Precipitation 0.00 in - - ()
Sea Level Pressure  
Sea Level Pressure 30.07 in    
Wind  
Wind Speed 3 mph (WNW)    
Max Wind Speed 14 mph    
Max Gust Speed 17 mph    
Visibility 8 miles    
Events      
Averages and records for this station are not official NWS values.
T = Trace of Precipitation, MM = Missing Value Source: NWS Daily Summary

Daily Weather History Graph

Daily Weather History Graph

Search for Another Location

Airport:

Trip Planner

Search our weather history database for the weather conditions in past years. The results will help you decide how hot, cold, wet, or windy it might be!

Date:

Astronomy

Nov. 08, 2012 Rise Set
Actual Time 6:49 AM EST 5:22 PM EST
Civil Twilight 6:22 AM EST 5:48 PM EST
Nautical Twilight 5:52 AM EST 6:18 PM EST
Astronomical Twilight 5:23 AM EST 6:48 PM EST
Moon 12:57 AM EST (11/8) 1:49 PM EST (11/8)
Length of Visible Light 11h 26m
Length of Day
10h 33m
Waning Crescent, 33% of the Moon is Illuminated
Nov 8
Waning Crescent
Nov 13
New
Nov 20
First Quarter
Nov 28
Full
Dec 6
Last Quarter

Hourly Weather History & Observations

Time (EST) Temp. Windchill Dew Point Humidity Pressure Visibility Wind Dir Wind Speed Gust Speed Precip Events Conditions
12:15 AM 41.0 °F - 39.2 °F 93% 29.98 in 7.0 mi Calm Calm - 0.00 in   Clear
12:35 AM 39.2 °F 37.0 °F 37.4 °F 93% 29.99 in 7.0 mi WSW 3.5 mph - 0.00 in   Clear
12:55 AM 39.2 °F 37.0 °F 37.4 °F 93% 29.99 in 5.0 mi WSW 3.5 mph - 0.00 in   Clear
1:15 AM 39.2 °F 37.0 °F 37.4 °F 93% 29.99 in 5.0 mi WSW 3.5 mph - 0.00 in   Clear
1:35 AM 39.2 °F - 37.4 °F 93% 29.99 in 5.0 mi Calm Calm - 0.00 in   Clear
1:55 AM 39.2 °F 37.0 °F 37.4 °F 93% 29.99 in 5.0 mi WNW 3.5 mph - 0.00 in   Clear
2:15 AM 39.2 °F 37.0 °F 37.4 °F 93% 29.99 in 4.0 mi West 3.5 mph - 0.00 in   Clear
2:35 AM 37.4 °F - 37.4 °F 100% 29.99 in 4.0 mi Calm Calm - 0.00 in   Clear
3:15 AM 37.4 °F - 37.4 °F 100% 29.99 in 3.0 mi Calm Calm - 0.00 in   Clear
3:35 AM 37.4 °F - 37.4 °F 100% 30.00 in 3.0 mi Calm Calm - 0.00 in   Clear
3:55 AM 37.4 °F - 37.4 °F 100% 30.00 in 5.0 mi Calm Calm - 0.00 in   Clear
4:15 AM 37.4 °F - 35.6 °F 93% 30.01 in 4.0 mi Calm Calm - 0.00 in   Clear
4:35 AM 37.4 °F - 37.4 °F 100% 30.01 in 3.0 mi Calm Calm - 0.00 in   Clear
4:55 AM 35.6 °F - 35.6 °F 100% 30.02 in 5.0 mi Calm Calm - 0.00 in   Clear
5:15 AM 37.4 °F - 35.6 °F 93% 30.03 in 5.0 mi Calm Calm - 0.00 in   Clear
5:35 AM 37.4 °F - 35.6 °F 93% 30.03 in 5.0 mi Calm Calm - 0.00 in   Clear
6:15 AM 37.4 °F - 35.6 °F 93% 30.05 in 5.0 mi Calm Calm - 0.00 in   Clear
6:35 AM 37.4 °F - 35.6 °F 93% 30.05 in 5.0 mi Calm Calm - 0.00 in   Clear
6:55 AM 37.4 °F - 35.6 °F 93% 30.06 in 5.0 mi Calm Calm - 0.00 in   Clear
7:15 AM 37.4 °F - 35.6 °F 93% 30.07 in 5.0 mi Calm Calm - 0.00 in   Clear
7:35 AM 37.4 °F - 35.6 °F 93% 30.08 in 5.0 mi Calm Calm - 0.00 in   Clear
7:55 AM 37.4 °F - 37.4 °F 100% 30.09 in 4.0 mi Calm Calm - 0.00 in   Clear
8:15 AM 39.2 °F - 37.4 °F 93% 30.10 in 5.0 mi Calm Calm - 0.00 in   Clear
8:35 AM 41.0 °F 39.0 °F 37.4 °F 87% 30.10 in 7.0 mi West 3.5 mph - 0.00 in   Clear
8:55 AM 42.8 °F 41.1 °F 39.2 °F 87% 30.11 in 8.0 mi West 3.5 mph - 0.00 in   Clear
9:15 AM 46.4 °F 44.3 °F 39.2 °F 76% 30.12 in 10.0 mi WNW 4.6 mph - 0.00 in   Clear
9:35 AM 50.0 °F - 39.2 °F 66% 30.12 in 10.0 mi NW 6.9 mph - 0.00 in   Clear
9:55 AM 53.6 °F - 37.4 °F 54% 30.12 in 10.0 mi NW 9.2 mph - 0.00 in   Clear
10:15 AM 53.6 °F - 35.6 °F 51% 30.12 in 10.0 mi NW 5.8 mph - 0.00 in   Clear
10:35 AM 55.4 °F - 35.6 °F 47% 30.12 in 10.0 mi NW 6.9 mph - 0.00 in   Clear
10:55 AM 55.4 °F - 33.8 °F 44% 30.12 in 10.0 mi NW 4.6 mph - 0.00 in   Clear
11:15 AM 57.2 °F - 35.6 °F 44% 30.12 in 10.0 mi West 6.9 mph - 0.00 in   Clear
11:35 AM 59.0 °F - 33.8 °F 39% 30.11 in 10.0 mi West 8.1 mph - 0.00 in   Clear
11:55 AM 59.0 °F - 33.8 °F 39% 30.11 in 10.0 mi West 5.8 mph - 0.00 in   Clear
12:15 PM 60.8 °F - 33.8 °F 36% 30.10 in 10.0 mi West 8.1 mph - 0.00 in   Clear
12:35 PM 60.8 °F - 32.0 °F 34% 30.08 in 10.0 mi WNW 10.4 mph - 0.00 in   Clear
12:55 PM 60.8 °F - 32.0 °F 34% 30.08 in 10.0 mi West 13.8 mph 17.3 mph 0.00 in   Clear
1:15 PM 62.6 °F - 30.2 °F 30% 30.07 in 10.0 mi WNW 4.6 mph - 0.00 in   Clear
1:35 PM 62.6 °F - 30.2 °F 30% 30.07 in 10.0 mi WNW 4.6 mph - 0.00 in   Clear
2:15 PM 64.4 °F - 24.8 °F 22% 30.06 in 10.0 mi WNW 8.1 mph - 0.00 in   Clear
2:35 PM 64.4 °F - 26.6 °F 24% 30.05 in 10.0 mi North 5.8 mph - 0.00 in   Clear
2:55 PM 64.4 °F - 26.6 °F 24% 30.06 in 10.0 mi NNW 9.2 mph - 0.00 in   Clear
3:15 PM 64.4 °F - 23.0 °F 21% 30.06 in 10.0 mi NNW 11.5 mph 16.1 mph 0.00 in   Clear
3:35 PM 64.4 °F - 26.6 °F 24% 30.06 in 10.0 mi NW 9.2 mph - 0.00 in   Clear
3:55 PM 64.4 °F - 28.4 °F 26% 30.06 in 10.0 mi West 6.9 mph - 0.00 in   Clear
4:15 PM 64.4 °F - 28.4 °F 26% 30.07 in 10.0 mi WNW 6.9 mph - 0.00 in   Clear
4:35 PM 64.4 °F - 28.4 °F 26% 30.07 in 10.0 mi West 6.9 mph - 0.00 in   Clear
4:55 PM 62.6 °F - 30.2 °F 30% 30.07 in 10.0 mi West 5.8 mph - 0.00 in   Clear
5:15 PM 60.8 °F - 30.2 °F 31% 30.07 in 10.0 mi West 4.6 mph - 0.00 in   Clear
5:35 PM 59.0 °F - 32.0 °F 36% 30.08 in 10.0 mi WSW 3.5 mph - 0.00 in   Clear
5:55 PM 57.2 °F - 32.0 °F 38% 30.09 in 10.0 mi Calm Calm - 0.00 in   Clear
6:15 PM 51.8 °F - 32.0 °F 47% 30.09 in 10.0 mi Calm Calm - 0.00 in   Clear
6:35 PM 51.8 °F - 33.8 °F 50% 30.11 in 10.0 mi Calm Calm - 0.00 in   Clear
6:55 PM 50.0 °F - 32.0 °F 50% 30.11 in 10.0 mi Calm Calm - 0.00 in   Clear
7:15 PM 46.4 °F - 33.8 °F 62% 30.11 in 10.0 mi Calm Calm - 0.00 in   Clear
7:35 PM 48.2 °F - 33.8 °F 58% 30.12 in 10.0 mi North - - 0.00 in   Clear
7:55 PM 44.6 °F - 33.8 °F 66% 30.12 in 10.0 mi Calm Calm - 0.00 in   Clear
8:15 PM 44.6 °F - 33.8 °F 66% 30.12 in 10.0 mi Calm Calm - 0.00 in   Clear
8:35 PM 44.6 °F - 33.8 °F 66% 30.13 in 10.0 mi Calm Calm - 0.00 in   Clear
8:55 PM 42.8 °F - 33.8 °F 70% 30.13 in 10.0 mi Calm Calm - 0.00 in   Clear
9:15 PM 44.6 °F - 32.0 °F 61% 30.14 in 10.0 mi Calm Calm - 0.00 in   Clear
9:35 PM 42.8 °F - 33.8 °F 70% 30.14 in 10.0 mi Calm Calm - 0.00 in   Clear
10:15 PM 37.4 °F - 32.0 °F 81% 30.15 in 10.0 mi Calm Calm - 0.00 in   Clear
10:35 PM 41.0 °F - 32.0 °F 70% 30.16 in 10.0 mi Calm Calm - 0.00 in   Clear
11:15 PM 42.8 °F - 32.0 °F 66% 30.16 in 10.0 mi Calm Calm - 0.00 in   Clear
11:35 PM 39.2 °F 37.0 °F 33.8 °F 81% 30.16 in 10.0 mi WNW 3.5 mph - 0.00 in   Clear